Time,TemperatureF,DewpointF,PressureIn,WindDirection,WindDirectionDegrees,WindSpeedMPH,WindSpeedGustMPH,Humidity,HourlyPrecipIn,Conditions,Clouds,dailyrainin,SoftwareType,DateUTC
2013-08-25 00:01:00,69.1,55.5,30.23,North,357,0.0,0.0,62,0.00,CLR,,0.00,WeatherDisplay:10.37,2013-08-25 04:01:00,
2013-08-25 00:02:00,69.1,55.5,30.23,North,357,0.0,0.0,62,0.00,CLR,,0.00,WeatherDisplay:10.37,2013-08-25 04:02:00,
2013-08-25 00:03:00,69.1,55.5,30.24,North,357,0.0,0.0,62,0.00,CLR,,0.00,WeatherDisplay:10.37,2013-08-25 04:03:00,
2013-08-25 00:08:00,69.1,55.5,30.24,NNW,335,0.0,0.0,62,0.00,CLR,,0.00,WeatherDisplay:10.37,2013-08-25 04:08:00,
2013-08-25 00:13:00,69.1,55.1,30.23,NNW,335,0.0,0.0,61,0.00,CLR,,0.00,WeatherDisplay:10.37,2013-08-25 04:13:00,
2013-08-25 00:18:00,68.9,55.3,30.23,NE,42,0.0,0.0,62,0.00,CLR,,0.00,WeatherDisplay:10.37,2013-08-25 04:18:00,
2013-08-25 00:23:00,68.7,55.2,30.23,NNW,335,0.0,0.0,62,0.00,CLR,,0.00,WeatherDisplay:10.37,2013-08-25 04:23:00,
2013-08-25 00:28:00,68.9,55.3,30.23,North,357,0.0,0.0,62,0.00,CLR,,0.00,WeatherDisplay:10.37,2013-08-25 04:28:00,
2013-08-25 00:33:00,69.1,55.5,30.23,ENE,65,0.0,0.0,62,0.00,CLR,,0.00,WeatherDisplay:10.37,2013-08-25 04:33:00,
2013-08-25 00:38:00,69.3,55.7,30.23,NNE,19,0.0,0.0,62,0.00,CLR,,0.00,WeatherDisplay:10.37,2013-08-25 04:38:00,
2013-08-25 00:43:00,69.4,55.9,30.22,North,357,0.0,0.0,62,0.00,CLR,,0.00,WeatherDisplay:10.37,2013-08-25 04:43:00,
2013-08-25 00:48:00,69.4,55.9,30.23,NNW,335,0.0,0.0,62,0.00,CLR,,0.00,WeatherDisplay:10.37,2013-08-25 04:48:00,
2013-08-25 00:53:00,69.6,56.0,30.23,NE,42,0.0,0.0,62,0.00,CLR,,0.00,WeatherDisplay:10.37,2013-08-25 04:53:00,
2013-08-25 00:58:00,69.4,56.3,30.23,NNW,335,0.0,0.0,63,0.00,CLR,,0.00,WeatherDisplay:10.37,2013-08-25 04:58:00,
2013-08-25 01:03:00,69.4,56.3,30.23,NNE,19,0.0,0.0,63,0.00,CLR,,0.00,WeatherDisplay:10.37,2013-08-25 05:03:00,
2013-08-25 01:08:00,69.4,56.7,30.23,SSE,155,0.0,0.0,64,0.00,CLR,,0.00,WeatherDisplay:10.37,2013-08-25 05:08:00,
2013-08-25 01:13:00,69.4,56.7,30.22,NW,312,0.0,0.0,64,0.00,CLR,,0.00,WeatherDisplay:10.37,2013-08-25 05:13:00,
2013-08-25 01:18:00,69.1,56.0,30.22,ESE,109,0.0,0.0,63,0.00,CLR,,0.00,WeatherDisplay:10.37,2013-08-25 05:18:00,
2013-08-25 01:23:00,69.1,56.4,30.23,East,87,0.0,0.0,64,0.00,CLR,,0.00,WeatherDisplay:10.37,2013-08-25 05:23:00,
2013-08-25 01:28:00,68.7,56.0,30.23,ESE,109,0.0,0.0,64,0.00,CLR,,0.00,WeatherDisplay:10.37,2013-08-25 05:28:00,
2013-08-25 01:33:00,68.7,56.5,30.23,East,87,0.0,0.0,65,0.00,CLR,,0.00,WeatherDisplay:10.37,2013-08-25 05:33:00,
2013-08-25 01:38:00,68.5,55.9,30.23,East,87,0.0,0.0,64,0.00,CLR,,0.00,WeatherDisplay:10.37,2013-08-25 05:38:00,
2013-08-25 01:43:00,68.5,55.9,30.23,ENE,65,0.0,0.0,64,0.00,CLR,,0.00,WeatherDisplay:10.37,2013-08-25 05:43:00,
2013-08-25 01:48:00,68.2,56.0,30.23,NNW,335,0.0,0.0,65,0.00,CLR,,0.00,WeatherDisplay:10.37,2013-08-25 05:48:00,
2013-08-25 01:53:00,68.2,56.4,30.23,NNE,19,0.0,0.0,66,0.00,CLR,,0.00,WeatherDisplay:10.37,2013-08-25 05:53:00,
2013-08-25 01:58:00,67.8,56.0,30.23,NE,42,0.0,0.0,66,0.00,CLR,,0.00,WeatherDisplay:10.37,2013-08-25 05:58:00,
2013-08-25 02:03:00,67.8,56.5,30.23,NNW,335,0.0,0.0,67,0.00,CLR,,0.00,WeatherDisplay:10.37,2013-08-25 06:03:00,
2013-08-25 02:08:00,67.8,56.5,30.23,SE,132,1.0,1.1,67,0.00,CLR,,0.00,WeatherDisplay:10.37,2013-08-25 06:08:00,
2013-08-25 02:13:00,67.8,56.5,30.23,North,357,0.0,0.0,67,0.00,CLR,,0.00,WeatherDisplay:10.37,2013-08-25 06:13:00,
2013-08-25 02:18:00,67.8,56.9,30.23,ENE,65,0.0,0.0,68,0.00,CLR,,0.00,WeatherDisplay:10.37,2013-08-25 06:18:00,
2013-08-25 02:23:00,67.6,56.3,30.22,South,177,0.0,0.0,67,0.00,CLR,,0.00,WeatherDisplay:10.37,2013-08-25 06:23:00,
2013-08-25 02:28:00,67.3,55.9,30.22,NE,42,0.0,0.0,67,0.00,CLR,,0.00,WeatherDisplay:10.37,2013-08-25 06:28:00,
2013-08-25 02:33:00,67.3,56.4,30.22,West,267,0.8,1.1,68,0.00,CLR,,0.00,WeatherDisplay:10.37,2013-08-25 06:33:00,
2013-08-25 02:38:00,67.5,56.5,30.22,WSW,245,0.0,0.0,68,0.00,CLR,,0.00,WeatherDisplay:10.37,2013-08-25 06:38:00,
2013-08-25 02:43:00,67.6,56.7,30.22,East,87,0.0,0.0,68,0.00,CLR,,0.00,WeatherDisplay:10.37,2013-08-25 06:43:00,
2013-08-25 02:48:00,67.6,56.7,30.23,ENE,65,0.0,0.0,68,0.00,CLR,,0.00,WeatherDisplay:10.37,2013-08-25 06:48:00,
2013-08-25 02:53:00,67.6,57.1,30.23,East,87,0.0,0.0,69,0.00,CLR,,0.00,WeatherDisplay:10.37,2013-08-25 06:53:00,
2013-08-25 02:58:00,67.3,56.4,30.22,NE,42,0.0,0.0,68,0.00,CLR,,0.00,WeatherDisplay:10.37,2013-08-25 06:58:00,
2013-08-25 03:03:00,67.1,56.2,30.23,ENE,65,0.0,0.0,68,0.00,CLR,,0.00,WeatherDisplay:10.37,2013-08-25 07:03:00,
2013-08-25 03:08:00,67.1,56.6,30.23,ENE,65,0.0,0.0,69,0.00,CLR,,0.00,WeatherDisplay:10.37,2013-08-25 07:08:00,
2013-08-25 03:13:00,66.9,56.4,30.22,North,357,0.0,0.0,69,0.00,CLR,,0.00,WeatherDisplay:10.37,2013-08-25 07:13:00,
2013-08-25 03:18:00,66.7,56.6,30.22,WNW,289,0.0,0.0,70,0.00,CLR,,0.00,WeatherDisplay:10.37,2013-08-25 07:18:00,
2013-08-25 03:23:00,66.7,56.2,30.23,West,267,0.0,0.0,69,0.00,CLR,,0.00,WeatherDisplay:10.37,2013-08-25 07:23:00,
2013-08-25 03:28:00,66.7,56.6,30.23,NNE,19,0.0,0.0,70,0.00,CLR,,0.00,WeatherDisplay:10.37,2013-08-25 07:28:00,
2013-08-25 03:33:00,66.4,56.3,30.23,NNW,335,0.0,0.0,70,0.00,CLR,,0.00,WeatherDisplay:10.37,2013-08-25 07:33:00,
2013-08-25 03:38:00,66.4,56.7,30.23,NE,42,0.0,0.0,71,0.00,CLR,,0.00,WeatherDisplay:10.37,2013-08-25 07:38:00,
2013-08-25 03:43:00,66.0,56.0,30.23,NNE,19,0.0,0.0,70,0.00,CLR,,0.00,WeatherDisplay:10.37,2013-08-25 07:43:00,
2013-08-25 03:48:00,65.8,56.2,30.23,NE,42,0.0,0.0,71,0.00,CLR,,0.00,WeatherDisplay:10.37,2013-08-25 07:48:00,
2013-08-25 03:53:00,65.8,56.2,30.23,ENE,65,0.0,0.0,71,0.00,CLR,,0.00,WeatherDisplay:10.37,2013-08-25 07:53:00,
2013-08-25 03:58:00,65.7,56.0,30.23,NE,42,0.0,0.0,71,0.00,CLR,,0.00,WeatherDisplay:10.37,2013-08-25 07:58:00,
2013-08-25 04:03:00,65.5,56.2,30.23,ENE,65,0.0,0.0,72,0.00,CLR,,0.00,WeatherDisplay:10.37,2013-08-25 08:03:00,
2013-08-25 04:08:00,65.3,56.0,30.23,NE,42,0.0,0.0,72,0.00,CLR,,0.00,WeatherDisplay:10.37,2013-08-25 08:08:00,
2013-08-25 04:13:00,65.3,56.0,30.23,NE,42,0.0,0.0,72,0.00,CLR,,0.00,WeatherDisplay:10.37,2013-08-25 08:13:00,
2013-08-25 04:18:00,64.9,55.7,30.23,NE,42,0.0,0.0,72,0.00,CLR,,0.00,WeatherDisplay:10.37,2013-08-25 08:18:00,
2013-08-25 04:23:00,64.8,55.9,30.23,NE,42,0.0,0.0,73,0.00,CLR,,0.00,WeatherDisplay:10.37,2013-08-25 08:23:00,
2013-08-25 04:28:00,64.6,55.7,30.23,NE,42,0.0,0.0,73,0.00,CLR,,0.00,WeatherDisplay:10.37,2013-08-25 08:28:00,
2013-08-25 04:33:00,64.6,55.7,30.23,NE,42,0.0,0.0,73,0.00,CLR,,0.00,WeatherDisplay:10.37,2013-08-25 08:33:00,
2013-08-25 04:38:00,64.6,56.1,30.24,NNE,19,0.0,0.0,74,0.00,CLR,,0.00,WeatherDisplay:10.37,2013-08-25 08:38:00,
2013-08-25 04:43:00,64.6,56.1,30.24,NNE,19,0.0,0.0,74,0.00,CLR,,0.00,WeatherDisplay:10.37,2013-08-25 08:43:00,
2013-08-25 04:48:00,64.6,56.1,30.24,ENE,65,0.0,0.0,74,0.00,CLR,,0.00,WeatherDisplay:10.37,2013-08-25 08:48:00,
2013-08-25 04:53:00,64.6,56.1,30.24,NE,42,0.0,0.0,74,0.00,CLR,,0.00,WeatherDisplay:10.37,2013-08-25 08:53:00,
2013-08-25 04:58:00,64.6,56.1,30.24,ENE,65,0.0,0.0,74,0.00,CLR,,0.00,WeatherDisplay:10.37,2013-08-25 08:58:00,
2013-08-25 05:03:00,64.6,56.1,30.24,NE,42,0.0,0.0,74,0.00,CLR,,0.00,WeatherDisplay:10.37,2013-08-25 09:03:00,
2013-08-25 05:08:00,64.6,56.5,30.24,North,357,0.0,0.0,75,0.00,CLR,,0.00,WeatherDisplay:10.37,2013-08-25 09:08:00,
2013-08-25 05:13:00,64.6,56.5,30.24,North,357,0.0,0.0,75,0.00,CLR,,0.00,WeatherDisplay:10.37,2013-08-25 09:13:00,
2013-08-25 05:18:00,64.4,55.9,30.24,NNE,19,0.0,0.0,74,0.00,CLR,,0.00,WeatherDisplay:10.37,2013-08-25 09:18:00,
2013-08-25 05:23:00,64.2,56.1,30.24,NE,42,0.0,0.0,75,0.00,CLR,,0.00,WeatherDisplay:10.37,2013-08-25 09:23:00,
2013-08-25 05:28:00,64.2,56.1,30.24,NE,42,0.0,0.0,75,0.00,CLR,,0.00,WeatherDisplay:10.37,2013-08-25 09:28:00,
2013-08-25 05:33:00,64.2,56.1,30.25,NE,42,0.0,0.0,75,0.00,CLR,,0.00,WeatherDisplay:10.37,2013-08-25 09:33:00,
2013-08-25 05:38:00,64.2,56.1,30.25,NE,42,0.0,0.0,75,0.00,CLR,,0.00,WeatherDisplay:10.37,2013-08-25 09:38:00,
2013-08-25 05:43:00,64.2,56.1,30.25,NE,42,0.0,0.0,75,0.00,CLR,,0.00,WeatherDisplay:10.37,2013-08-25 09:43:00,
2013-08-25 05:48:00,64.2,56.5,30.25,NNE,19,0.0,0.0,76,0.00,CLR,,0.00,WeatherDisplay:10.37,2013-08-25 09:48:00,
2013-08-25 05:53:00,64.2,56.1,30.26,North,357,0.0,0.0,75,0.00,CLR,,0.00,WeatherDisplay:10.37,2013-08-25 09:53:00,
2013-08-25 05:58:00,64.0,56.0,30.26,NE,42,0.0,0.0,75,0.00,CLR,,0.00,WeatherDisplay:10.37,2013-08-25 09:58:00,
2013-08-25 06:03:00,64.0,56.0,30.26,NE,42,0.0,0.0,75,0.00,CLR,,0.00,WeatherDisplay:10.37,2013-08-25 10:03:00,
2013-08-25 06:08:00,63.7,56.0,30.26,NNE,19,0.0,0.0,76,0.00,CLR,,0.00,WeatherDisplay:10.37,2013-08-25 10:08:00,
2013-08-25 06:13:00,63.7,56.0,30.26,ENE,65,0.0,0.0,76,0.00,CLR,,0.00,WeatherDisplay:10.37,2013-08-25 10:13:00,
2013-08-25 06:18:00,63.7,55.6,30.27,SSE,155,0.0,0.0,75,0.00,CLR,,0.00,WeatherDisplay:10.37,2013-08-25 10:18:00,
2013-08-25 06:23:00,63.5,55.8,30.27,East,87,0.0,0.0,76,0.00,CLR,,0.00,WeatherDisplay:10.37,2013-08-25 10:23:00,
2013-08-25 06:28:00,63.3,56.0,30.27,NNE,19,0.0,0.0,77,0.00,CLR,,0.00,WeatherDisplay:10.37,2013-08-25 10:28:00,
2013-08-25 06:33:00,63.3,56.0,30.27,North,357,0.0,0.0,77,0.00,CLR,,0.00,WeatherDisplay:10.37,2013-08-25 10:33:00,
2013-08-25 06:38:00,63.3,56.3,30.27,NNW,335,0.7,1.3,78,0.00,CLR,,0.00,WeatherDisplay:10.37,2013-08-25 10:38:00,
2013-08-25 06:43:00,63.3,56.3,30.27,North,357,0.0,0.0,78,0.00,CLR,,0.00,WeatherDisplay:10.37,2013-08-25 10:43:00,
2013-08-25 06:48:00,63.3,56.3,30.27,NNE,19,0.0,0.0,78,0.00,CLR,,0.00,WeatherDisplay:10.37,2013-08-25 10:48:00,
2013-08-25 06:53:00,63.3,56.3,30.27,NE,42,0.0,0.0,78,0.00,CLR,,0.00,WeatherDisplay:10.37,2013-08-25 10:53:00,
2013-08-25 06:58:00,63.3,56.3,30.27,North,357,0.0,0.0,78,0.00,CLR,,0.00,WeatherDisplay:10.37,2013-08-25 10:58:00,
2013-08-25 07:03:00,63.3,56.3,30.28,NNE,19,0.0,0.0,78,0.00,CLR,,0.00,WeatherDisplay:10.37,2013-08-25 11:03:00,
2013-08-25 07:08:00,63.3,56.3,30.28,NE,42,0.0,0.0,78,0.00,CLR,,0.00,WeatherDisplay:10.37,2013-08-25 11:08:00,
2013-08-25 07:13:00,63.3,56.3,30.29,NNE,19,0.0,0.0,78,0.00,CLR,,0.00,WeatherDisplay:10.37,2013-08-25 11:13:00,
2013-08-25 07:18:00,63.3,56.0,30.29,ESE,109,0.0,0.0,77,0.00,CLR,,0.00,WeatherDisplay:10.37,2013-08-25 11:18:00,
2013-08-25 07:23:00,63.1,55.8,30.29,ESE,109,0.0,0.0,77,0.00,CLR,,0.00,WeatherDisplay:10.37,2013-08-25 11:23:00,
2013-08-25 07:28:00,63.1,56.2,30.29,ENE,65,0.0,0.0,78,0.00,CLR,,0.00,WeatherDisplay:10.37,2013-08-25 11:28:00,
2013-08-25 07:33:00,63.3,56.7,30.30,NE,42,0.0,0.0,79,0.00,CLR,,0.00,WeatherDisplay:10.37,2013-08-25 11:33:00,
2013-08-25 07:38:00,63.3,56.7,30.29,ENE,65,0.0,0.0,79,0.00,CLR,,0.00,WeatherDisplay:10.37,2013-08-25 11:38:00,
2013-08-25 07:43:00,63.5,56.9,30.29,NE,42,0.0,0.0,79,0.00,CLR,,0.00,WeatherDisplay:10.37,2013-08-25 11:43:00,
2013-08-25 07:48:00,63.9,57.2,30.30,North,357,0.0,0.0,79,0.00,CLR,,0.00,WeatherDisplay:10.37,2013-08-25 11:48:00,
2013-08-25 07:53:00,63.9,57.2,30.30,SSE,155,0.0,0.0,79,0.00,CLR,,0.00,WeatherDisplay:10.37,2013-08-25 11:53:00,
2013-08-25 07:58:00,64.0,57.0,30.30,NE,42,0.0,0.0,78,0.00,CLR,,0.00,WeatherDisplay:10.37,2013-08-25 11:58:00,
2013-08-25 08:03:00,64.0,57.0,30.30,ESE,109,0.0,0.0,78,0.00,CLR,,0.00,WeatherDisplay:10.37,2013-08-25 12:03:00,
2013-08-25 08:08:00,64.2,57.2,30.30,West,267,0.0,0.0,78,0.00,CLR,,0.00,WeatherDisplay:10.37,2013-08-25 12:08:00,
2013-08-25 08:13:00,64.6,57.9,30.31,East,87,0.0,0.0,79,0.00,CLR,,0.00,WeatherDisplay:10.37,2013-08-25 12:13:00,
2013-08-25 08:18:00,64.9,58.3,30.30,SE,132,0.0,0.0,79,0.00,CLR,,0.00,WeatherDisplay:10.37,2013-08-25 12:18:00,
2013-08-25 08:23:00,65.1,58.1,30.30,WSW,245,0.0,0.0,78,0.00,CLR,,0.00,WeatherDisplay:10.37,2013-08-25 12:23:00,
2013-08-25 08:28:00,65.8,58.8,30.31,SE,132,1.3,1.3,78,0.00,CLR,,0.00,WeatherDisplay:10.37,2013-08-25 12:28:00,
2013-08-25 08:33:00,66.2,59.1,30.31,SSE,155,0.0,0.0,78,0.00,CLR,,0.00,WeatherDisplay:10.37,2013-08-25 12:33:00,
2013-08-25 08:38:00,66.4,59.3,30.31,SSE,155,0.0,0.0,78,0.00,CLR,,0.00,WeatherDisplay:10.37,2013-08-25 12:38:00,
2013-08-25 08:43:00,66.4,59.3,30.31,SSE,155,0.0,0.0,78,0.00,CLR,,0.00,WeatherDisplay:10.37,2013-08-25 12:43:00,
2013-08-25 08:48:00,66.4,58.6,30.31,SSE,155,0.0,0.0,76,0.00,CLR,,0.00,WeatherDisplay:10.37,2013-08-25 12:48:00,
2013-08-25 08:53:00,66.4,58.6,30.31,South,177,2.6,0.0,76,0.00,CLR,,0.00,WeatherDisplay:10.37,2013-08-25 12:53:00,
2013-08-25 08:58:00,68.4,60.1,30.31,South,177,2.6,0.0,75,0.00,CLR,,0.00,WeatherDisplay:10.37,2013-08-25 12:58:00,
2013-08-25 09:03:00,69.1,60.8,30.31,South,177,0.5,1.1,75,0.00,CLR,,0.00,WeatherDisplay:10.37,2013-08-25 13:03:00,
2013-08-25 09:08:00,70.0,61.3,30.31,South,177,1.5,2.3,74,0.00,CLR,,0.00,WeatherDisplay:10.37,2013-08-25 13:08:00,
2013-08-25 09:13:00,70.5,61.8,30.31,SSE,155,2.0,2.0,74,0.00,CLR,,0.00,WeatherDisplay:10.37,2013-08-25 13:13:00,
2013-08-25 09:18:00,71.2,62.1,30.31,SW,222,1.9,3.5,73,0.00,CLR,,0.00,WeatherDisplay:10.37,2013-08-25 13:18:00,
2013-08-25 09:23:00,71.2,62.1,30.31,SSE,155,3.6,3.6,73,0.00,CLR,,0.00,WeatherDisplay:10.37,2013-08-25 13:23:00,
2013-08-25 09:28:00,73.8,63.8,30.31,SSW,199,3.6,3.6,71,0.00,CLR,,0.00,WeatherDisplay:10.37,2013-08-25 13:28:00,
2013-08-25 09:33:00,74.5,64.5,30.31,SE,132,1.5,1.5,71,0.00,CLR,,0.00,WeatherDisplay:10.37,2013-08-25 13:33:00,
2013-08-25 09:38:00,74.8,64.4,30.32,SSE,155,2.0,3.5,70,0.00,CLR,,0.00,WeatherDisplay:10.37,2013-08-25 13:38:00,
2013-08-25 09:43:00,74.8,64.4,30.32,SSE,155,2.9,2.9,70,0.00,CLR,,0.00,WeatherDisplay:10.37,2013-08-25 13:43:00,
2013-08-25 09:48:00,74.8,64.4,30.32,SSW,199,0.0,0.0,70,0.00,CLR,,0.00,WeatherDisplay:10.37,2013-08-25 13:48:00,
2013-08-25 09:53:00,78.6,66.7,30.31,SW,222,0.7,5.8,67,0.00,CLR,,0.00,WeatherDisplay:10.37,2013-08-25 13:53:00,
2013-08-25 09:58:00,78.6,66.7,30.31,SW,222,0.7,5.8,67,0.00,CLR,,0.00,WeatherDisplay:10.37,2013-08-25 13:58:00,
2013-08-25 10:03:00,79.7,67.8,30.31,SW,222,4.2,4.2,67,0.00,CLR,,0.00,WeatherDisplay:10.37,2013-08-25 14:03:00,
2013-08-25 10:08:00,80.4,68.0,30.31,West,267,3.6,3.6,66,0.00,CLR,,0.00,WeatherDisplay:10.37,2013-08-25 14:08:00,
2013-08-25 10:13:00,80.4,68.0,30.31,West,267,2.2,3.5,66,0.00,CLR,,0.00,WeatherDisplay:10.37,2013-08-25 14:13:00,
2013-08-25 10:18:00,81.7,69.2,30.31,SSE,155,6.8,6.9,66,0.00,CLR,,0.00,WeatherDisplay:10.37,2013-08-25 14:18:00,
2013-08-25 10:23:00,82.6,70.1,30.31,South,177,2.7,4.6,66,0.00,CLR,,0.00,WeatherDisplay:10.37,2013-08-25 14:23:00,
2013-08-25 10:28:00,82.6,70.1,30.31,South,177,4.2,4.6,66,0.00,CLR,,0.00,WeatherDisplay:10.37,2013-08-25 14:28:00,
2013-08-25 10:33:00,83.7,69.3,30.31,SSW,199,7.4,7.4,62,0.00,CLR,,0.00,WeatherDisplay:10.37,2013-08-25 14:33:00,
2013-08-25 10:38:00,83.5,69.1,30.31,WSW,245,3.8,5.8,62,0.00,CLR,,0.00,WeatherDisplay:10.37,2013-08-25 14:38:00,
2013-08-25 10:43:00,83.5,68.6,30.31,WSW,245,2.0,10.5,61,0.00,CLR,,0.00,WeatherDisplay:10.37,2013-08-25 14:43:00,
2013-08-25 10:48:00,83.1,68.3,30.32,West,267,2.9,4.6,61,0.00,CLR,,0.00,WeatherDisplay:10.37,2013-08-25 14:48:00,
2013-08-25 10:53:00,83.1,68.3,30.32,West,267,0.9,2.3,61,0.00,CLR,,0.00,WeatherDisplay:10.37,2013-08-25 14:53:00,
2013-08-25 10:58:00,83.1,68.7,30.32,WSW,245,1.6,1.6,62,0.00,CLR,,0.00,WeatherDisplay:10.37,2013-08-25 14:58:00,
2013-08-25 11:03:00,83.1,69.2,30.32,SW,222,3.1,3.5,63,0.00,CLR,,0.00,WeatherDisplay:10.37,2013-08-25 15:03:00,
2013-08-25 11:08:00,84.4,70.4,30.32,SE,132,0.9,3.5,63,0.00,CLR,,0.00,WeatherDisplay:10.37,2013-08-25 15:08:00,
2013-08-25 11:13:00,85.1,70.6,30.31,SW,222,0.0,0.0,62,0.00,CLR,,0.00,WeatherDisplay:10.37,2013-08-25 15:13:00,
2013-08-25 11:18:00,86.7,71.2,30.32,SSE,155,0.7,1.1,60,0.00,CLR,,0.00,WeatherDisplay:10.37,2013-08-25 15:18:00,
2013-08-25 11:23:00,86.9,70.8,30.32,SSW,199,2.3,3.5,59,0.00,CLR,,0.00,WeatherDisplay:10.37,2013-08-25 15:23:00,
2013-08-25 11:28:00,87.4,71.8,30.32,West,267,0.1,1.1,60,0.00,CLR,,0.00,WeatherDisplay:10.37,2013-08-25 15:28:00,
2013-08-25 11:33:00,87.4,71.3,30.32,WSW,245,3.1,3.8,59,0.00,CLR,,0.00,WeatherDisplay:10.37,2013-08-25 15:33:00,
2013-08-25 11:38:00,87.4,70.8,30.31,WSW,245,6.9,6.9,58,0.00,CLR,,0.00,WeatherDisplay:10.37,2013-08-25 15:38:00,
2013-08-25 11:43:00,88.2,70.5,30.31,WSW,245,2.9,3.8,56,0.00,CLR,,0.00,WeatherDisplay:10.37,2013-08-25 15:43:00,
2013-08-25 11:48:00,88.0,70.3,30.31,WSW,245,6.6,8.1,56,0.00,CLR,,0.00,WeatherDisplay:10.37,2013-08-25 15:48:00,
2013-08-25 11:53:00,87.1,69.5,30.31,WSW,245,4.3,4.3,56,0.00,CLR,,0.00,WeatherDisplay:10.37,2013-08-25 15:53:00,
2013-08-25 11:58:00,86.5,69.0,30.31,West,267,3.6,4.6,56,0.00,CLR,,0.00,WeatherDisplay:10.37,2013-08-25 15:58:00,
2013-08-25 12:03:00,85.8,68.3,30.30,SW,222,8.3,8.3,56,0.00,CLR,,0.00,WeatherDisplay:10.37,2013-08-25 16:03:00,
2013-08-25 12:08:00,86.7,70.2,30.30,WSW,245,5.9,8.1,58,0.00,CLR,,0.00,WeatherDisplay:10.37,2013-08-25 16:08:00,
2013-08-25 12:13:00,87.4,70.3,30.30,West,267,0.0,5.4,57,0.00,CLR,,0.00,WeatherDisplay:10.37,2013-08-25 16:13:00,
2013-08-25 12:18:00,87.6,71.0,30.30,SW,222,3.4,3.5,58,0.00,CLR,,0.00,WeatherDisplay:10.37,2013-08-25 16:18:00,
2013-08-25 12:23:00,87.6,70.0,30.30,SSW,199,4.7,4.7,56,0.00,CLR,,0.00,WeatherDisplay:10.37,2013-08-25 16:23:00,
2013-08-25 12:28:00,87.8,70.1,30.29,West,267,8.3,8.3,56,0.00,CLR,,0.00,WeatherDisplay:10.37,2013-08-25 16:28:00,
2013-08-25 12:33:00,88.0,70.8,30.29,West,267,0.0,1.1,57,0.00,CLR,,0.00,WeatherDisplay:10.37,2013-08-25 16:33:00,
2013-08-25 12:38:00,88.5,71.9,30.29,SW,222,5.1,5.1,58,0.00,CLR,,0.00,WeatherDisplay:10.37,2013-08-25 16:38:00,
2013-08-25 12:43:00,88.5,71.9,30.28,WSW,245,5.9,5.9,58,0.00,CLR,,0.00,WeatherDisplay:10.37,2013-08-25 16:43:00,
2013-08-25 12:48:00,88.5,70.8,30.29,West,267,2.9,3.5,56,0.00,CLR,,0.00,WeatherDisplay:10.37,2013-08-25 16:48:00,
2013-08-25 12:53:00,91.6,73.1,30.29,WSW,245,2.5,3.5,55,0.00,CLR,,0.00,WeatherDisplay:10.37,2013-08-25 16:53:00,
2013-08-25 12:58:00,91.6,71.5,30.29,West,267,4.9,4.9,52,0.00,CLR,,0.00,WeatherDisplay:10.37,2013-08-25 16:58:00,
2013-08-25 13:03:00,91.6,72.0,30.29,WSW,245,7.8,8.1,53,0.00,CLR,,0.00,WeatherDisplay:10.37,2013-08-25 17:03:00,
2013-08-25 13:08:00,88.3,70.7,30.29,WSW,245,2.0,4.6,56,0.00,BKN,,0.00,WeatherDisplay:10.37,2013-08-25 17:08:00,
2013-08-25 13:13:00,88.3,70.7,30.28,West,267,2.8,3.5,56,0.00,BKN,,0.00,WeatherDisplay:10.37,2013-08-25 17:13:00,
2013-08-25 13:18:00,88.7,69.9,30.28,West,267,3.7,4.6,54,0.00,BKN,,0.00,WeatherDisplay:10.37,2013-08-25 17:18:00,
2013-08-25 13:23:00,88.7,70.5,30.28,SSW,199,4.7,4.7,55,0.00,BKN,,0.00,WeatherDisplay:10.37,2013-08-25 17:23:00,
2013-08-25 13:28:00,90.0,72.2,30.28,SW,222,4.5,4.6,56,0.00,BKN,,0.00,WeatherDisplay:10.37,2013-08-25 17:28:00,
2013-08-25 13:33:00,90.0,70.5,30.28,West,267,1.6,8.1,53,0.00,BKN,,0.00,WeatherDisplay:10.37,2013-08-25 17:33:00,
2013-08-25 13:38:00,90.0,71.1,30.28,NW,312,4.9,4.9,54,0.00,BKN,,0.00,WeatherDisplay:10.37,2013-08-25 17:38:00,
2013-08-25 13:43:00,88.0,70.3,30.28,SW,222,3.6,3.6,56,0.00,BKN,,0.00,WeatherDisplay:10.37,2013-08-25 17:43:00,
2013-08-25 13:48:00,88.0,70.3,30.27,SSE,155,6.5,6.9,56,0.00,BKN,,0.00,WeatherDisplay:10.37,2013-08-25 17:48:00,
2013-08-25 13:53:00,90.0,72.2,30.27,WSW,245,3.4,3.5,56,0.00,BKN,,0.00,WeatherDisplay:10.37,2013-08-25 17:53:00,
2013-08-25 13:58:00,91.2,71.7,30.27,NW,312,1.3,1.3,53,0.00,BKN,,0.00,WeatherDisplay:10.37,2013-08-25 17:58:00,
2013-08-25 14:03:00,91.4,71.9,30.27,SSE,155,2.1,3.5,53,0.00,BKN,,0.00,WeatherDisplay:10.37,2013-08-25 18:03:00,
2013-08-25 14:08:00,91.2,72.2,30.27,SE,132,0.8,3.5,54,0.00,SCT,,0.00,WeatherDisplay:10.37,2013-08-25 18:08:00,
2013-08-25 14:13:00,91.9,72.4,30.27,SW,222,3.6,3.6,53,0.00,SCT,,0.00,WeatherDisplay:10.37,2013-08-25 18:13:00,
2013-08-25 14:18:00,92.1,72.0,30.27,South,177,3.4,3.5,52,0.00,SCT,,0.00,WeatherDisplay:10.37,2013-08-25 18:18:00,
2013-08-25 14:23:00,92.1,72.0,30.27,West,267,0.9,1.1,52,0.00,SCT,,0.00,WeatherDisplay:10.37,2013-08-25 18:23:00,
2013-08-25 14:28:00,93.0,73.4,30.26,SW,222,5.1,5.1,53,0.00,SCT,,0.00,WeatherDisplay:10.37,2013-08-25 18:28:00,
2013-08-25 14:33:00,94.6,73.7,30.27,SW,222,1.7,3.5,51,0.00,SCT,,0.00,WeatherDisplay:10.37,2013-08-25 18:33:00,
2013-08-25 14:38:00,95.2,73.6,30.26,SSW,199,3.1,3.5,50,0.00,SCT,,0.00,WeatherDisplay:10.37,2013-08-25 18:38:00,
2013-08-25 14:43:00,95.2,72.4,30.26,SW,222,0.0,2.9,48,0.00,SCT,,0.00,WeatherDisplay:10.37,2013-08-25 18:43:00,
2013-08-25 14:48:00,94.8,72.7,30.26,SW,222,2.5,3.5,49,0.00,SCT,,0.00,WeatherDisplay:10.37,2013-08-25 18:48:00,
2013-08-25 14:53:00,94.6,72.5,30.26,WSW,245,2.9,3.5,49,0.00,SCT,,0.00,WeatherDisplay:10.37,2013-08-25 18:53:00,
2013-08-25 14:58:00,93.2,70.6,30.25,SW,222,4.0,4.0,48,0.00,SCT,,0.00,WeatherDisplay:10.37,2013-08-25 18:58:00,
2013-08-25 15:03:00,92.1,70.8,30.25,WSW,245,0.0,2.3,50,0.00,SCT,,0.00,WeatherDisplay:10.37,2013-08-25 19:03:00,
2013-08-25 15:08:00,91.2,69.4,30.25,South,177,0.0,0.0,49,0.00,BKN,,0.00,WeatherDisplay:10.37,2013-08-25 19:08:00,
2013-08-25 15:13:00,91.0,70.4,30.25,WSW,245,2.9,3.5,51,0.00,BKN,,0.00,WeatherDisplay:10.37,2013-08-25 19:13:00,
2013-08-25 15:18:00,90.7,70.1,30.25,NNW,335,0.0,0.0,51,0.00,BKN,,0.00,WeatherDisplay:10.37,2013-08-25 19:18:00,
2013-08-25 15:23:00,90.5,69.9,30.25,West,267,2.0,2.3,51,0.00,BKN,,0.00,WeatherDisplay:10.37,2013-08-25 19:23:00,
2013-08-25 15:28:00,91.0,70.4,30.25,NW,312,1.9,2.3,51,0.00,BKN,,0.00,WeatherDisplay:10.37,2013-08-25 19:28:00,
2013-08-25 15:33:00,91.2,71.1,30.24,SSE,155,3.6,3.6,52,0.00,BKN,,0.00,WeatherDisplay:10.37,2013-08-25 19:33:00,
2013-08-25 15:38:00,91.8,71.1,30.24,SE,132,0.0,0.0,51,0.00,BKN,,0.00,WeatherDisplay:10.37,2013-08-25 19:38:00,
2013-08-25 15:43:00,91.9,70.6,30.24,West,267,2.0,2.3,50,0.00,BKN,,0.00,WeatherDisplay:10.37,2013-08-25 19:43:00,
2013-08-25 15:48:00,91.9,71.8,30.24,South,177,2.7,3.5,52,0.00,BKN,,0.00,WeatherDisplay:10.37,2013-08-25 19:48:00,
2013-08-25 15:53:00,92.1,71.4,30.24,WSW,245,0.0,0.0,51,0.00,BKN,,0.00,WeatherDisplay:10.37,2013-08-25 19:53:00,
2013-08-25 15:58:00,91.9,69.4,30.24,WNW,289,2.1,3.5,48,0.00,BKN,,0.00,WeatherDisplay:10.37,2013-08-25 19:58:00,
2013-08-25 16:03:00,91.0,68.6,30.23,North,357,0.0,1.1,48,0.00,BKN,,0.00,WeatherDisplay:10.37,2013-08-25 20:03:00,
2013-08-25 16:08:00,90.3,68.0,30.23,South,177,2.7,3.5,48,0.00,SCT,,0.00,WeatherDisplay:10.37,2013-08-25 20:08:00,
2013-08-25 16:13:00,90.1,69.0,30.23,ESE,109,0.0,0.0,50,0.00,SCT,,0.00,WeatherDisplay:10.37,2013-08-25 20:13:00,
2013-08-25 16:18:00,90.1,69.6,30.23,ESE,109,0.0,1.1,51,0.00,SCT,,0.00,WeatherDisplay:10.37,2013-08-25 20:18:00,
2013-08-25 16:23:00,90.3,69.7,30.22,SSE,155,0.0,0.0,51,0.00,SCT,,0.00,WeatherDisplay:10.37,2013-08-25 20:23:00,
2013-08-25 16:28:00,90.5,70.5,30.23,WSW,245,0.0,0.0,52,0.00,SCT,,0.00,WeatherDisplay:10.37,2013-08-25 20:28:00,
2013-08-25 16:33:00,90.7,70.1,30.23,SW,222,0.0,2.3,51,0.00,SCT,,0.00,WeatherDisplay:10.37,2013-08-25 20:33:00,
2013-08-25 16:38:00,91.2,69.4,30.23,NW,312,2.5,2.5,49,0.00,SCT,,0.00,WeatherDisplay:10.37,2013-08-25 20:38:00,
2013-08-25 16:43:00,91.2,68.8,30.23,SW,222,0.4,1.1,48,0.00,SCT,,0.00,WeatherDisplay:10.37,2013-08-25 20:43:00,
2013-08-25 16:48:00,90.7,68.3,30.23,SW,222,1.1,1.1,48,0.00,SCT,,0.00,WeatherDisplay:10.37,2013-08-25 20:48:00,
2013-08-25 16:53:00,90.5,68.7,30.22,West,267,1.6,1.6,49,0.00,SCT,,0.00,WeatherDisplay:10.37,2013-08-25 20:53:00,
2013-08-25 16:58:00,90.7,68.9,30.22,WSW,245,0.0,0.0,49,0.00,SCT,,0.00,WeatherDisplay:10.37,2013-08-25 20:58:00,
2013-08-25 17:03:00,90.7,67.7,30.22,NNW,335,3.1,3.5,47,0.00,SCT,,0.00,WeatherDisplay:10.37,2013-08-25 21:03:00,
2013-08-25 17:08:00,90.7,67.7,30.23,NNW,335,0.9,1.1,47,0.00,BKN,,0.00,WeatherDisplay:10.37,2013-08-25 21:08:00,
2013-08-25 17:13:00,90.3,67.4,30.22,WSW,245,1.2,2.3,47,0.00,BKN,,0.00,WeatherDisplay:10.37,2013-08-25 21:13:00,
2013-08-25 17:18:00,90.1,68.4,30.23,WSW,245,0.9,1.1,49,0.00,BKN,,0.00,WeatherDisplay:10.37,2013-08-25 21:18:00,
2013-08-25 17:23:00,90.3,69.2,30.22,West,267,0.0,0.0,50,0.00,BKN,,0.00,WeatherDisplay:10.37,2013-08-25 21:23:00,
2013-08-25 17:28:00,90.7,68.9,30.22,WSW,245,0.0,0.0,49,0.00,BKN,,0.00,WeatherDisplay:10.37,2013-08-25 21:28:00,
2013-08-25 17:33:00,90.1,67.8,30.22,West,267,0.0,0.0,48,0.00,BKN,,0.00,WeatherDisplay:10.37,2013-08-25 21:33:00,
2013-08-25 17:38:00,89.4,68.3,30.22,SW,222,0.0,0.0,50,0.00,BKN,,0.00,WeatherDisplay:10.37,2013-08-25 21:38:00,
2013-08-25 17:43:00,89.2,67.6,30.21,North,357,2.7,2.7,49,0.00,BKN,,0.00,WeatherDisplay:10.37,2013-08-25 21:43:00,
2013-08-25 17:48:00,89.1,68.0,30.21,NE,42,0.0,0.0,50,0.00,BKN,,0.00,WeatherDisplay:10.37,2013-08-25 21:48:00,
2013-08-25 17:53:00,88.9,67.8,30.21,WNW,289,0.7,1.1,50,0.00,BKN,,0.00,WeatherDisplay:10.37,2013-08-25 21:53:00,
2013-08-25 17:58:00,89.2,68.7,30.22,East,87,0.0,0.0,51,0.00,BKN,,0.00,WeatherDisplay:10.37,2013-08-25 21:58:00,
2013-08-25 18:03:00,89.4,69.5,30.22,ESE,109,0.0,1.1,52,0.00,BKN,,0.00,WeatherDisplay:10.37,2013-08-25 22:03:00,
2013-08-25 18:08:00,89.8,69.2,30.22,ESE,109,0.2,1.1,51,0.00,FEW,,0.00,WeatherDisplay:10.37,2013-08-25 22:08:00,
2013-08-25 18:13:00,90.0,68.8,30.22,SE,132,0.0,0.0,50,0.00,FEW,,0.00,WeatherDisplay:10.37,2013-08-25 22:13:00,
2013-08-25 18:18:00,90.1,68.4,30.22,North,357,0.8,1.1,49,0.00,FEW,,0.00,WeatherDisplay:10.37,2013-08-25 22:18:00,
2013-08-25 18:23:00,89.8,68.1,30.21,NNW,335,3.1,3.5,49,0.00,FEW,,0.00,WeatherDisplay:10.37,2013-08-25 22:23:00,
2013-08-25 18:28:00,89.4,68.9,30.21,South,177,1.2,1.6,51,0.00,FEW,,0.00,WeatherDisplay:10.37,2013-08-25 22:28:00,
2013-08-25 18:33:00,90.0,68.8,30.21,SE,132,1.3,2.0,50,0.00,FEW,,0.00,WeatherDisplay:10.37,2013-08-25 22:33:00,
2013-08-25 18:38:00,90.3,69.2,30.21,SSE,155,0.0,1.1,50,0.00,FEW,,0.00,WeatherDisplay:10.37,2013-08-25 22:38:00,
2013-08-25 18:43:00,90.3,69.2,30.21,North,357,0.5,1.1,50,0.00,FEW,,0.00,WeatherDisplay:10.37,2013-08-25 22:43:00,
2013-08-25 18:48:00,89.8,68.7,30.21,NNE,19,0.0,2.3,50,0.00,FEW,,0.00,WeatherDisplay:10.37,2013-08-25 22:48:00,
2013-08-25 18:53:00,89.4,68.3,30.22,NNW,335,2.2,2.3,50,0.00,FEW,,0.00,WeatherDisplay:10.37,2013-08-25 22:53:00,
2013-08-25 18:58:00,88.9,69.0,30.22,WSW,245,1.8,2.5,52,0.00,FEW,,0.00,WeatherDisplay:10.37,2013-08-25 22:58:00,
2013-08-25 19:03:00,89.2,69.9,30.21,West,267,1.6,4.6,53,0.00,FEW,,0.00,WeatherDisplay:10.37,2013-08-25 23:03:00,
2013-08-25 19:08:00,89.4,69.5,30.22,West,267,1.8,2.3,52,0.00,CLR,,0.00,WeatherDisplay:10.37,2013-08-25 23:08:00,
2013-08-25 19:13:00,88.7,69.4,30.22,WSW,245,3.0,3.5,53,0.00,CLR,,0.00,WeatherDisplay:10.37,2013-08-25 23:13:00,
2013-08-25 19:18:00,88.5,69.8,30.22,SSW,199,1.5,5.8,54,0.00,CLR,,0.00,WeatherDisplay:10.37,2013-08-25 23:18:00,
2013-08-25 19:23:00,88.5,69.8,30.22,SSW,199,0.0,0.0,54,0.00,CLR,,0.00,WeatherDisplay:10.37,2013-08-25 23:23:00,
2013-08-25 19:28:00,88.5,69.8,30.22,SW,222,0.5,1.1,54,0.00,CLR,,0.00,WeatherDisplay:10.37,2013-08-25 23:28:00,
2013-08-25 19:33:00,88.3,70.1,30.21,SSE,155,0.0,0.0,55,0.00,CLR,,0.00,WeatherDisplay:10.37,2013-08-25 23:33:00,
2013-08-25 19:38:00,88.3,70.1,30.22,SW,222,4.7,4.7,55,0.00,CLR,,0.00,WeatherDisplay:10.37,2013-08-25 23:38:00,
2013-08-25 19:43:00,88.2,70.0,30.22,South,177,5.8,5.8,55,0.00,CLR,,0.00,WeatherDisplay:10.37,2013-08-25 23:43:00,
2013-08-25 19:48:00,87.6,69.5,30.21,SW,222,3.6,3.6,55,0.00,CLR,,0.00,WeatherDisplay:10.37,2013-08-25 23:48:00,
2013-08-25 19:53:00,87.4,69.3,30.21,WSW,245,5.1,5.1,55,0.00,CLR,,0.00,WeatherDisplay:10.37,2013-08-25 23:53:00,
2013-08-25 19:58:00,86.9,69.3,30.21,SSW,199,0.9,1.1,56,0.00,CLR,,0.00,WeatherDisplay:10.37,2013-08-25 23:58:00,
2013-08-25 20:03:00,86.5,69.5,30.22,WSW,245,2.2,2.3,57,0.00,CLR,,0.00,WeatherDisplay:10.37,2013-08-26 00:03:00,
2013-08-25 20:08:00,85.8,68.8,30.22,West,267,3.1,3.5,57,0.00,CLR,,0.00,WeatherDisplay:10.37,2013-08-26 00:08:00,
2013-08-25 20:13:00,85.5,69.0,30.22,SSW,199,2.9,3.5,58,0.00,CLR,,0.00,WeatherDisplay:10.37,2013-08-26 00:13:00,
2013-08-25 20:18:00,84.9,68.5,30.22,SW,222,1.1,2.3,58,0.00,CLR,,0.00,WeatherDisplay:10.37,2013-08-26 00:18:00,
2013-08-25 20:23:00,84.6,68.7,30.22,South,177,0.0,0.0,59,0.00,CLR,,0.00,WeatherDisplay:10.37,2013-08-26 00:23:00,
2013-08-25 20:28:00,83.8,68.0,30.22,SSW,199,0.0,0.0,59,0.00,CLR,,0.00,WeatherDisplay:10.37,2013-08-26 00:28:00,
2013-08-25 20:33:00,83.3,68.0,30.22,SSW,199,0.0,0.0,60,0.00,CLR,,0.00,WeatherDisplay:10.37,2013-08-26 00:33:00,
2013-08-25 20:38:00,82.9,67.6,30.22,SW,222,0.0,0.0,60,0.00,CLR,,0.00,WeatherDisplay:10.37,2013-08-26 00:38:00,
2013-08-25 20:43:00,82.4,67.6,30.22,South,177,0.0,0.0,61,0.00,CLR,,0.00,WeatherDisplay:10.37,2013-08-26 00:43:00,
2013-08-25 20:48:00,82.0,67.3,30.22,SW,222,0.0,0.0,61,0.00,CLR,,0.00,WeatherDisplay:10.37,2013-08-26 00:48:00,
2013-08-25 20:53:00,81.7,67.4,30.23,South,177,0.0,0.0,62,0.00,CLR,,0.00,WeatherDisplay:10.37,2013-08-26 00:53:00,
2013-08-25 20:58:00,81.3,67.1,30.23,SSW,199,0.8,2.3,62,0.00,CLR,,0.00,WeatherDisplay:10.37,2013-08-26 00:58:00,
2013-08-25 21:03:00,81.1,67.3,30.23,WSW,245,1.6,1.6,63,0.00,CLR,,0.00,WeatherDisplay:10.37,2013-08-26 01:03:00,
2013-08-25 21:08:00,80.6,66.8,30.23,SW,222,0.0,0.0,63,0.00,CLR,,0.00,WeatherDisplay:10.37,2013-08-26 01:08:00,
2013-08-25 21:13:00,80.4,67.1,30.23,West,267,0.0,0.0,64,0.00,CLR,,0.00,WeatherDisplay:10.37,2013-08-26 01:13:00,
2013-08-25 21:18:00,80.1,67.2,30.24,SW,222,0.0,0.0,65,0.00,CLR,,0.00,WeatherDisplay:10.37,2013-08-26 01:18:00,
2013-08-25 21:23:00,79.7,66.9,30.23,SSW,199,0.0,0.0,65,0.00,CLR,,0.00,WeatherDisplay:10.37,2013-08-26 01:23:00,
2013-08-25 21:28:00,79.3,66.5,30.24,WSW,245,0.0,0.0,65,0.00,CLR,,0.00,WeatherDisplay:10.37,2013-08-26 01:28:00,
2013-08-25 21:33:00,79.0,66.2,30.24,WSW,245,0.0,0.0,65,0.00,CLR,,0.00,WeatherDisplay:10.37,2013-08-26 01:33:00,
2013-08-25 21:38:00,78.8,66.0,30.24,WSW,245,0.0,0.0,65,0.00,CLR,,0.00,WeatherDisplay:10.37,2013-08-26 01:38:00,
2013-08-25 21:43:00,78.6,66.3,30.24,SW,222,0.0,0.0,66,0.00,CLR,,0.00,WeatherDisplay:10.37,2013-08-26 01:43:00,
2013-08-25 21:48:00,78.3,66.4,30.24,SW,222,0.0,0.0,67,0.00,CLR,,0.00,WeatherDisplay:10.37,2013-08-26 01:48:00,
2013-08-25 21:53:00,77.7,65.9,30.24,West,267,0.0,0.0,67,0.00,CLR,,0.00,WeatherDisplay:10.37,2013-08-26 01:53:00,
2013-08-25 21:58:00,77.5,66.1,30.24,WSW,245,0.0,0.0,68,0.00,CLR,,0.00,WeatherDisplay:10.37,2013-08-26 01:58:00,
2013-08-25 22:03:00,77.4,66.0,30.24,SSW,199,0.0,0.0,68,0.00,CLR,,0.00,WeatherDisplay:10.37,2013-08-26 02:03:00,
2013-08-25 22:08:00,76.8,65.9,30.24,South,177,0.0,0.0,69,0.00,FEW,,0.00,WeatherDisplay:10.37,2013-08-26 02:08:00,
2013-08-25 22:13:00,76.8,65.9,30.24,South,177,0.0,0.0,69,0.00,FEW,,0.00,WeatherDisplay:10.37,2013-08-26 02:13:00,
2013-08-25 22:18:00,76.3,65.8,30.24,South,177,0.0,0.0,70,0.00,FEW,,0.00,WeatherDisplay:10.37,2013-08-26 02:18:00,
2013-08-25 22:23:00,75.9,65.4,30.24,SSE,155,0.0,0.0,70,0.00,FEW,,0.00,WeatherDisplay:10.37,2013-08-26 02:23:00,
2013-08-25 22:28:00,75.7,65.3,30.24,SSE,155,0.0,0.0,70,0.00,FEW,,0.00,WeatherDisplay:10.37,2013-08-26 02:28:00,
2013-08-25 22:33:00,75.4,65.3,30.24,SW,222,0.0,0.0,71,0.00,FEW,,0.00,WeatherDisplay:10.37,2013-08-26 02:33:00,
2013-08-25 22:38:00,75.0,65.0,30.24,SW,222,0.0,0.0,71,0.00,FEW,,0.00,WeatherDisplay:10.37,2013-08-26 02:38:00,
2013-08-25 22:43:00,75.0,65.0,30.25,SW,222,0.0,0.0,71,0.00,FEW,,0.00,WeatherDisplay:10.37,2013-08-26 02:43:00,
2013-08-25 22:48:00,74.8,65.2,30.25,SW,222,0.0,0.0,72,0.00,FEW,,0.00,WeatherDisplay:10.37,2013-08-26 02:48:00,
2013-08-25 22:53:00,74.5,64.9,30.25,SW,222,0.0,0.0,72,0.00,FEW,,0.00,WeatherDisplay:10.37,2013-08-26 02:53:00,
2013-08-25 22:58:00,74.5,65.3,30.24,SW,222,0.0,0.0,73,0.00,FEW,,0.00,WeatherDisplay:10.37,2013-08-26 02:58:00,
2013-08-25 23:03:00,74.1,64.9,30.24,South,177,0.0,3.5,73,0.00,FEW,,0.00,WeatherDisplay:10.37,2013-08-26 03:03:00,
2013-08-25 23:08:00,73.9,64.7,30.25,South,177,0.0,0.0,73,0.00,CLR,,0.00,WeatherDisplay:10.37,2013-08-26 03:08:00,
2013-08-25 23:13:00,73.9,65.1,30.25,South,177,0.2,1.1,74,0.00,CLR,,0.00,WeatherDisplay:10.37,2013-08-26 03:13:00,
2013-08-25 23:18:00,73.6,65.2,30.26,SW,222,0.0,0.0,75,0.00,CLR,,0.00,WeatherDisplay:10.37,2013-08-26 03:18:00,
2013-08-25 23:23:00,73.6,65.5,30.26,WSW,245,0.0,0.0,76,0.00,CLR,,0.00,WeatherDisplay:10.37,2013-08-26 03:23:00,
2013-08-25 23:28:00,73.2,64.8,30.26,WSW,245,0.0,0.0,75,0.00,CLR,,0.00,WeatherDisplay:10.37,2013-08-26 03:28:00,
2013-08-25 23:33:00,73.2,65.2,30.26,SSW,199,0.0,0.0,76,0.00,CLR,,0.00,WeatherDisplay:10.37,2013-08-26 03:33:00,
2013-08-25 23:38:00,73.0,65.0,30.26,SSW,199,0.0,0.0,76,0.00,CLR,,0.00,WeatherDisplay:10.37,2013-08-26 03:38:00,
2013-08-25 23:43:00,72.9,64.8,30.25,SSW,199,0.0,0.0,76,0.00,CLR,,0.00,WeatherDisplay:10.37,2013-08-26 03:43:00,
2013-08-25 23:48:00,72.7,65.1,30.25,SW,222,0.0,0.0,77,0.00,CLR,,0.00,WeatherDisplay:10.37,2013-08-26 03:48:00,
2013-08-25 23:53:00,72.5,64.9,30.25,WSW,245,0.0,0.0,77,0.00,CLR,,0.00,WeatherDisplay:10.37,2013-08-26 03:53:00,
2013-08-25 23:58:00,72.3,64.7,30.26,SW,222,0.0,0.0,77,0.00,CLR,,0.00,WeatherDisplay:10.37,2013-08-26 03:58:00,